Time;durP1;ratioP1;P1;durP2;ratioP2;P2;SDS_P1;SDS_P2;PMS_P1;PMS_P2;Temp;Humidity;BMP_temperature;BMP_pressure;BME280_temperature;BME280_humidity;BME280_pressure;Samples;Min_cycle;Max_cycle;Signal;HPM_P1;HPM_P2
2022/03/17 00:01:08;;;;;;;;;;;8.10;99.90;;;;;;5054055;28;19917;-84
2022/03/17 00:03:34;;;;;;;;;;;8.10;99.90;;;;;;5041470;28;20006;-84
2022/03/17 00:05:59;;;;;;;;;;;8.10;99.90;;;;;;5067141;28;19936;-84
2022/03/17 00:08:24;;;;;;;;;;;8.10;99.90;;;;;;5065683;28;19929;-85
2022/03/17 00:10:50;;;;;;;;;;;8.10;99.90;;;;;;5065209;28;19912;-85
2022/03/17 00:13:16;;;;;;;;;;;8.10;99.90;;;;;;5057582;28;19976;-84
2022/03/17 00:15:41;;;;;;;;;;;8.10;99.90;;;;;;5063606;28;19916;-84
2022/03/17 00:18:07;;;;;;;;;;;8.10;99.90;;;;;;5050460;28;19920;-84
2022/03/17 00:20:32;;;;;;;;;;;8.10;99.90;;;;;;5061248;28;19920;-85
2022/03/17 00:22:58;;;;;;;;;;;8.10;99.90;;;;;;5060472;28;19916;-85
2022/03/17 00:25:25;;;;;;;;;;;8.10;99.90;;;;;;5061853;28;20230;-85
2022/03/17 00:27:51;;;;;;;;;;;8.10;99.90;;;;;;5065973;28;19912;-85
2022/03/17 00:30:17;;;;;;;;;;;8.10;99.90;;;;;;5070159;28;19913;-85
2022/03/17 00:32:42;;;;;;;;;;;8.10;99.90;;;;;;5053582;28;19927;-85
2022/03/17 00:37:53;;;;;;;;;;;8.00;99.90;;;;;;5065783;28;19957;-84
2022/03/17 00:40:18;;;;;;;;;;;8.00;99.90;;;;;;5063692;28;19983;-85
2022/03/17 00:42:44;;;;;;;;;;;8.00;99.90;;;;;;5062744;28;19916;-84
2022/03/17 00:45:10;;;;;;;;;;;8.00;99.90;;;;;;5052047;28;19929;-85
2022/03/17 00:47:36;;;;;;;;;;;8.00;99.90;;;;;;5069687;28;19938;-85
2022/03/17 00:50:02;;;;;;;;;;;8.00;99.90;;;;;;5068490;28;20384;-84
2022/03/17 00:52:27;;;;;;;;;;;8.00;99.90;;;;;;5075269;28;20338;-85
2022/03/17 00:54:52;;;;;;;;;;;8.00;99.90;;;;;;5072270;28;19913;-85
2022/03/17 00:57:18;;;;;;;;;;;8.00;99.90;;;;;;5057455;28;19925;-85
2022/03/17 00:59:43;;;;;;;;;;;8.00;99.90;;;;;;5052173;28;19924;-84
2022/03/17 01:02:09;;;;;;;;;;;7.90;99.90;;;;;;5048715;28;19928;-85
2022/03/17 01:04:35;;;;;;;;;;;8.00;99.90;;;;;;5067389;28;19931;-85
2022/03/17 01:07:01;;;;;;;;;;;8.00;99.90;;;;;;5069493;28;19939;-84
2022/03/17 01:09:28;;;;;;;;;;;7.90;99.90;;;;;;5052726;28;20376;-84
2022/03/17 01:11:54;;;;;;;;;;;7.90;99.90;;;;;;5053924;28;19921;-85
2022/03/17 01:14:19;;;;;;;;;;;7.90;99.90;;;;;;5071957;28;19947;-85
2022/03/17 01:16:45;;;;;;;;;;;7.90;99.90;;;;;;5074069;28;19920;-85
2022/03/17 01:19:10;;;;;;;;;;;7.90;99.90;;;;;;5075172;28;19976;-85
2022/03/17 01:21:35;;;;;;;;;;;7.90;99.90;;;;;;5046095;28;19932;-85
2022/03/17 01:24:01;;;;;;;;;;;7.90;99.90;;;;;;5069636;28;19916;-85
2022/03/17 01:26:26;;;;;;;;;;;7.90;99.90;;;;;;5079786;28;19920;-85
2022/03/17 01:28:52;;;;;;;;;;;7.90;99.90;;;;;;5057380;28;19916;-84
2022/03/17 01:31:18;;;;;;;;;;;7.90;99.90;;;;;;5065865;28;20507;-84
2022/03/17 01:33:44;;;;;;;;;;;7.90;99.90;;;;;;5056637;28;19913;-84
2022/03/17 01:36:09;;;;;;;;;;;7.90;99.90;;;;;;5065002;28;20300;-86
2022/03/17 01:38:34;;;;;;;;;;;7.90;99.90;;;;;;5034449;28;19917;-84
2022/03/17 01:41:00;;;;;;;;;;;7.90;99.90;;;;;;5063215;28;19963;-85
2022/03/17 01:43:25;;;;;;;;;;;7.80;99.90;;;;;;5043530;28;19920;-85
2022/03/17 01:45:52;;;;;;;;;;;7.90;99.90;;;;;;5062279;28;20338;-84
2022/03/17 01:48:19;;;;;;;;;;;7.80;99.90;;;;;;5057496;28;20352;-84
2022/03/17 01:50:45;;;;;;;;;;;7.80;99.90;;;;;;5063593;28;19924;-84
2022/03/17 01:53:10;;;;;;;;;;;7.80;99.90;;;;;;5052673;28;19916;-84
2022/03/17 01:55:36;;;;;;;;;;;7.80;99.90;;;;;;5065260;28;19920;-87
2022/03/17 01:58:02;;;;;;;;;;;7.70;99.90;;;;;;5051462;28;19913;-87
2022/03/17 02:00:27;;;;;;;;;;;7.60;99.90;;;;;;5057681;28;19912;-87
2022/03/17 02:02:53;;;;;;;;;;;7.60;99.90;;;;;;5059069;28;20379;-87
2022/03/17 02:05:19;;;;;;;;;;;7.60;99.90;;;;;;5041156;28;19928;-84
2022/03/17 02:07:49;;;;;;;;;;;7.60;99.90;;;;;;5058719;28;20385;-84
2022/03/17 02:10:14;;;;;;;;;;;7.50;99.90;;;;;;5070033;28;19916;-84
2022/03/17 02:15:26;;;;;;;;;;;7.50;99.90;;;;;;5054272;28;20420;-85
2022/03/17 02:17:52;;;;;;;;;;;7.50;99.90;;;;;;5038596;28;19917;-85
2022/03/17 02:20:17;;;;;;;;;;;7.50;99.90;;;;;;5046865;28;19931;-87
2022/03/17 02:22:44;;;;;;;;;;;7.40;99.90;;;;;;5036639;28;19920;-87
2022/03/17 02:27:54;;;;;;;;;;;7.40;99.90;;;;;;5061967;28;19962;-87
2022/03/17 02:30:20;;;;;;;;;;;7.40;99.90;;;;;;5040683;28;20475;-86
2022/03/17 02:32:47;;;;;;;;;;;7.40;99.90;;;;;;5052245;28;20010;-84
2022/03/17 02:35:14;;;;;;;;;;;7.40;99.90;;;;;;5067017;28;20190;-84
2022/03/17 02:37:40;;;;;;;;;;;7.30;99.90;;;;;;5054210;28;20454;-84
2022/03/17 02:40:07;;;;;;;;;;;7.30;99.90;;;;;;5060370;28;19924;-87
2022/03/17 02:42:32;;;;;;;;;;;7.30;99.90;;;;;;5057726;28;19931;-87
2022/03/17 02:44:59;;;;;;;;;;;7.30;99.90;;;;;;5063453;28;19925;-87
2022/03/17 02:47:24;;;;;;;;;;;7.40;99.90;;;;;;5057238;28;19916;-87
2022/03/17 02:49:52;;;;;;;;;;;7.40;99.90;;;;;;5068646;28;19917;-87
2022/03/17 02:52:18;;;;;;;;;;;7.40;99.90;;;;;;5062877;28;19916;-87
2022/03/17 02:54:43;;;;;;;;;;;7.40;99.90;;;;;;5071269;28;19909;-87
2022/03/17 02:57:09;;;;;;;;;;;7.40;99.90;;;;;;5038280;28;20340;-87
2022/03/17 02:59:34;;;;;;;;;;;7.50;99.90;;;;;;5067507;28;19913;-87
2022/03/17 03:02:04;;;;;;;;;;;7.50;99.90;;;;;;5061836;28;19974;-87
2022/03/17 03:04:30;;;;;;;;;;;7.50;99.90;;;;;;5057500;28;20361;-87
2022/03/17 03:06:55;;;;;;;;;;;7.50;99.90;;;;;;5055537;28;19962;-84
2022/03/17 03:09:21;;;;;;;;;;;7.50;99.90;;;;;;5057339;28;19948;-84
2022/03/17 03:11:47;;;;;;;;;;;7.50;99.90;;;;;;5045298;28;20220;-84
2022/03/17 03:14:12;;;;;;;;;;;7.50;99.90;;;;;;5069335;28;19924;-84
2022/03/17 03:16:38;;;;;;;;;;;7.50;99.90;;;;;;5039775;28;19920;-84
2022/03/17 03:19:03;;;;;;;;;;;7.50;99.90;;;;;;5038638;28;19968;-84
2022/03/17 03:21:29;;;;;;;;;;;7.50;99.90;;;;;;5053229;28;20339;-85
2022/03/17 03:23:54;;;;;;;;;;;7.50;99.90;;;;;;5067561;28;19912;-84
2022/03/17 03:26:20;;;;;;;;;;;7.40;99.90;;;;;;5054253;28;19924;-85
2022/03/17 03:28:45;;;;;;;;;;;7.40;99.90;;;;;;5051204;28;19917;-84
2022/03/17 03:31:11;;;;;;;;;;;7.40;99.90;;;;;;5035751;28;20377;-84
2022/03/17 03:33:37;;;;;;;;;;;7.40;99.90;;;;;;5031558;28;20012;-84
2022/03/17 03:38:46;;;;;;;;;;;7.40;99.90;;;;;;5068073;28;19969;-85
2022/03/17 03:41:12;;;;;;;;;;;7.40;99.90;;;;;;5037470;28;20850;-85
2022/03/17 03:43:38;;;;;;;;;;;7.40;99.90;;;;;;5035385;28;19952;-84
2022/03/17 03:46:04;;;;;;;;;;;7.40;99.90;;;;;;5065083;28;20007;-84
2022/03/17 03:48:31;;;;;;;;;;;7.40;99.90;;;;;;5052943;28;19920;-85
2022/03/17 03:50:57;;;;;;;;;;;7.40;99.90;;;;;;5046032;28;19917;-84
2022/03/17 03:53:22;;;;;;;;;;;7.40;99.90;;;;;;5038758;28;19916;-85
2022/03/17 03:55:48;;;;;;;;;;;7.40;99.90;;;;;;5061416;28;19913;-84
2022/03/17 03:58:13;;;;;;;;;;;7.30;99.90;;;;;;5061137;28;19964;-84
2022/03/17 04:00:41;;;;;;;;;;;7.30;99.90;;;;;;5061220;28;20355;-85
2022/03/17 04:03:07;;;;;;;;;;;7.30;99.90;;;;;;5051735;28;19924;-85
2022/03/17 04:07:58;;;;;;;;;;;7.30;99.90;;;;;;5055385;28;19916;-85
2022/03/17 04:10:24;;;;;;;;;;;7.30;99.90;;;;;;5038794;28;20416;-84
2022/03/17 04:12:50;;;;;;;;;;;7.30;99.90;;;;;;5058150;28;19970;-85
2022/03/17 04:15:15;;;;;;;;;;;7.30;99.90;;;;;;5066860;28;19912;-84
2022/03/17 04:17:41;;;;;;;;;;;7.30;99.90;;;;;;5064124;28;19912;-85
2022/03/17 04:20:06;;;;;;;;;;;7.30;99.90;;;;;;5048825;28;19948;-85
2022/03/17 04:22:32;;;;;;;;;;;7.30;99.90;;;;;;5048946;28;19920;-85
2022/03/17 04:24:57;;;;;;;;;;;7.30;99.90;;;;;;5051240;28;19959;-85
2022/03/17 04:27:23;;;;;;;;;;;7.20;99.90;;;;;;5060169;28;20055;-84
2022/03/17 04:29:48;;;;;;;;;;;7.20;99.90;;;;;;5035029;28;19925;-84
2022/03/17 04:32:14;;;;;;;;;;;7.20;99.90;;;;;;5053252;28;20011;-85
2022/03/17 04:34:39;;;;;;;;;;;7.20;99.90;;;;;;5063186;28;19921;-85
2022/03/17 04:37:05;;;;;;;;;;;7.20;99.90;;;;;;5032605;28;20019;-84
2022/03/17 04:39:30;;;;;;;;;;;7.20;99.90;;;;;;5046870;28;19920;-84
2022/03/17 04:41:56;;;;;;;;;;;7.30;99.90;;;;;;5035373;28;20365;-84
2022/03/17 04:44:21;;;;;;;;;;;7.20;99.90;;;;;;5065624;23;19935;-85
2022/03/17 04:46:47;;;;;;;;;;;7.20;99.90;;;;;;5089432;28;19933;-85
2022/03/17 04:49:13;;;;;;;;;;;7.20;99.90;;;;;;5051602;28;19920;-85
2022/03/17 04:51:38;;;;;;;;;;;7.20;99.90;;;;;;5052674;28;19920;-84
2022/03/17 04:54:04;;;;;;;;;;;7.20;99.90;;;;;;5053151;28;19920;-85
2022/03/17 04:56:30;;;;;;;;;;;7.20;99.90;;;;;;5052944;28;20300;-83
2022/03/17 04:58:55;;;;;;;;;;;7.20;99.90;;;;;;5070518;28;19918;-85
2022/03/17 05:01:21;;;;;;;;;;;7.20;99.90;;;;;;5069489;28;19942;-84
2022/03/17 05:03:46;;;;;;;;;;;7.20;99.90;;;;;;5053315;28;20607;-84
2022/03/17 05:06:13;;;;;;;;;;;7.20;99.90;;;;;;5071289;28;20333;-85
2022/03/17 05:08:38;;;;;;;;;;;7.20;99.90;;;;;;5069496;28;19936;-85
2022/03/17 05:11:04;;;;;;;;;;;7.20;99.90;;;;;;5070473;28;19916;-85
2022/03/17 05:13:30;;;;;;;;;;;7.20;99.90;;;;;;5069974;28;19974;-85
2022/03/17 05:15:56;;;;;;;;;;;7.20;99.90;;;;;;5069936;28;19916;-84
2022/03/17 05:18:21;;;;;;;;;;;7.20;99.90;;;;;;5068694;28;20062;-85
2022/03/17 05:20:47;;;;;;;;;;;7.20;99.90;;;;;;5070382;28;20034;-85
2022/03/17 05:23:14;;;;;;;;;;;7.20;99.90;;;;;;5068938;28;20369;-85
2022/03/17 05:25:40;;;;;;;;;;;7.20;99.90;;;;;;5069407;28;19927;-85
2022/03/17 05:28:08;;;;;;;;;;;7.20;99.90;;;;;;5068718;28;19916;-85
2022/03/17 05:30:34;;;;;;;;;;;7.20;99.90;;;;;;5069628;28;19921;-85
2022/03/17 05:33:00;;;;;;;;;;;7.20;99.90;;;;;;5069225;28;19917;-84
2022/03/17 05:35:26;;;;;;;;;;;7.20;99.90;;;;;;5069448;28;20352;-84
2022/03/17 05:37:53;;;;;;;;;;;7.20;99.90;;;;;;5070225;28;19912;-85
2022/03/17 05:40:19;;;;;;;;;;;7.20;99.90;;;;;;5064200;28;19916;-85
2022/03/17 05:42:52;;;;;;;;;;;7.20;99.90;;;;;;5070601;28;20506;-85
2022/03/17 05:45:18;;;;;;;;;;;7.20;99.90;;;;;;5062096;28;20459;-85
2022/03/17 05:47:44;;;;;;;;;;;7.20;99.90;;;;;;5052198;28;20016;-84
2022/03/17 05:50:11;;;;;;;;;;;7.20;99.90;;;;;;5068959;28;19920;-84
2022/03/17 05:52:38;;;;;;;;;;;7.10;99.90;;;;;;5069729;28;20367;-84
2022/03/17 05:55:05;;;;;;;;;;;7.20;99.90;;;;;;5069684;28;19955;-84
2022/03/17 05:57:31;;;;;;;;;;;7.10;99.90;;;;;;5069313;28;19919;-85
2022/03/17 05:59:56;;;;;;;;;;;7.10;99.90;;;;;;5054902;28;19921;-85
2022/03/17 06:02:22;;;;;;;;;;;7.10;99.90;;;;;;5074504;28;19971;-84
2022/03/17 06:04:47;;;;;;;;;;;7.10;99.90;;;;;;5055500;28;19932;-84
2022/03/17 06:07:12;;;;;;;;;;;7.10;99.90;;;;;;5055108;28;19916;-84
2022/03/17 06:09:38;;;;;;;;;;;7.10;99.90;;;;;;5069942;28;20037;-84
2022/03/17 06:12:05;;;;;;;;;;;7.10;99.90;;;;;;5057865;28;19916;-84
2022/03/17 06:14:32;;;;;;;;;;;7.00;99.90;;;;;;5076993;28;20027;-84
2022/03/17 06:16:58;;;;;;;;;;;7.00;99.90;;;;;;5072869;28;19912;-84
2022/03/17 06:19:23;;;;;;;;;;;7.00;99.90;;;;;;5055475;28;19920;-84
2022/03/17 06:21:49;;;;;;;;;;;7.10;99.90;;;;;;5071999;28;19958;-84
2022/03/17 06:24:14;;;;;;;;;;;7.10;99.90;;;;;;5072171;28;20346;-84
2022/03/17 06:26:40;;;;;;;;;;;7.10;99.90;;;;;;5054304;28;19920;-84
2022/03/17 06:29:05;;;;;;;;;;;7.20;99.90;;;;;;5055425;28;20304;-84
2022/03/17 06:31:31;;;;;;;;;;;7.20;99.90;;;;;;5054988;28;19916;-84
2022/03/17 06:33:57;;;;;;;;;;;7.20;99.90;;;;;;5072572;28;19958;-84
2022/03/17 06:36:23;;;;;;;;;;;7.30;99.90;;;;;;5071472;28;19982;-84
2022/03/17 06:38:48;;;;;;;;;;;7.30;99.90;;;;;;5054505;28;20288;-84
2022/03/17 06:41:14;;;;;;;;;;;7.40;99.90;;;;;;5073660;28;19952;-84
2022/03/17 06:43:39;;;;;;;;;;;7.40;99.90;;;;;;5073493;28;19956;-84
2022/03/17 06:46:05;;;;;;;;;;;7.40;99.90;;;;;;5055466;28;19925;-83
2022/03/17 06:48:30;;;;;;;;;;;7.50;99.90;;;;;;5054732;28;19916;-85
2022/03/17 06:50:57;;;;;;;;;;;7.50;99.90;;;;;;5072152;28;19939;-84
2022/03/17 06:53:22;;;;;;;;;;;7.50;99.90;;;;;;5055417;28;19916;-83
2022/03/17 06:55:48;;;;;;;;;;;7.60;99.90;;;;;;5073659;28;19915;-83
2022/03/17 06:58:13;;;;;;;;;;;7.60;99.90;;;;;;5054857;28;19924;-84
2022/03/17 07:00:39;;;;;;;;;;;7.60;99.90;;;;;;5072317;28;19925;-85
2022/03/17 07:03:04;;;;;;;;;;;7.70;99.90;;;;;;5073264;28;20266;-84
2022/03/17 07:05:29;;;;;;;;;;;7.70;99.90;;;;;;5057268;28;19927;-83
2022/03/17 07:07:55;;;;;;;;;;;7.70;99.90;;;;;;5073669;28;19935;-85
2022/03/17 07:10:20;;;;;;;;;;;7.80;99.90;;;;;;5072648;28;19917;-85
2022/03/17 07:12:47;;;;;;;;;;;7.80;99.90;;;;;;5074275;28;19955;-84
2022/03/17 07:15:12;;;;;;;;;;;7.90;99.90;;;;;;5074901;28;19938;-85
2022/03/17 07:17:41;;;;;;;;;;;7.90;99.90;;;;;;5073944;28;19916;-84
2022/03/17 07:20:08;;;;;;;;;;;8.00;99.90;;;;;;5074675;28;19980;-85
2022/03/17 07:22:34;;;;;;;;;;;8.00;99.90;;;;;;5075532;28;20016;-84
2022/03/17 07:24:59;;;;;;;;;;;8.10;99.90;;;;;;5075335;28;20403;-84
2022/03/17 07:27:25;;;;;;;;;;;8.20;99.90;;;;;;5057114;28;19920;-83
2022/03/17 07:29:51;;;;;;;;;;;8.20;99.90;;;;;;5055811;28;19993;-83
2022/03/17 07:32:18;;;;;;;;;;;8.30;99.90;;;;;;5065709;28;19952;-83
2022/03/17 07:34:45;;;;;;;;;;;8.30;99.90;;;;;;5071386;28;20007;-83
2022/03/17 07:37:10;;;;;;;;;;;8.40;99.90;;;;;;5070766;28;19912;-84
2022/03/17 07:39:36;;;;;;;;;;;8.40;99.90;;;;;;5054648;28;20517;-83
2022/03/17 07:42:04;;;;;;;;;;;8.50;99.90;;;;;;5054304;28;19921;-83
2022/03/17 07:44:30;;;;;;;;;;;8.50;99.90;;;;;;5070935;28;19970;-82
2022/03/17 07:46:55;;;;;;;;;;;8.50;99.90;;;;;;5053863;28;19928;-85
2022/03/17 07:49:21;;;;;;;;;;;8.60;99.90;;;;;;5071183;28;20381;-83
2022/03/17 07:51:46;;;;;;;;;;;8.60;99.90;;;;;;5071017;28;19962;-83
2022/03/17 07:54:12;;;;;;;;;;;8.60;99.90;;;;;;5054305;28;19962;-84
2022/03/17 07:56:38;;;;;;;;;;;8.70;99.90;;;;;;5070262;28;21061;-83
2022/03/17 07:59:04;;;;;;;;;;;8.80;99.90;;;;;;5071016;28;20380;-83
2022/03/17 08:01:29;;;;;;;;;;;8.90;99.90;;;;;;5070808;28;19916;-83
2022/03/17 08:03:55;;;;;;;;;;;8.90;99.90;;;;;;5053732;28;19967;-83
2022/03/17 08:06:21;;;;;;;;;;;8.90;99.90;;;;;;5070539;28;19977;-83
2022/03/17 08:08:47;;;;;;;;;;;8.90;99.90;;;;;;5070185;28;20011;-83
2022/03/17 08:11:13;;;;;;;;;;;8.90;99.90;;;;;;5054148;28;19951;-84
2022/03/17 08:13:38;;;;;;;;;;;9.00;99.90;;;;;;5070882;28;19912;-84
2022/03/17 08:16:04;;;;;;;;;;;8.90;99.90;;;;;;5070236;28;20296;-83
2022/03/17 08:18:31;;;;;;;;;;;9.00;99.90;;;;;;5053613;28;19952;-83
2022/03/17 08:20:56;;;;;;;;;;;9.00;99.90;;;;;;5070850;28;19917;-84
2022/03/17 08:23:22;;;;;;;;;;;9.00;99.90;;;;;;5052522;28;19924;-82
2022/03/17 08:25:49;;;;;;;;;;;9.10;99.90;;;;;;5069207;28;20061;-85
2022/03/17 08:28:15;;;;;;;;;;;9.10;99.90;;;;;;5063753;28;19921;-84
2022/03/17 08:30:40;;;;;;;;;;;9.10;99.90;;;;;;5053764;28;19920;-84
2022/03/17 08:33:06;;;;;;;;;;;9.20;99.90;;;;;;5070602;28;19917;-84
2022/03/17 08:35:31;;;;;;;;;;;9.20;99.90;;;;;;5053842;28;19916;-84
2022/03/17 08:37:57;;;;;;;;;;;9.30;99.90;;;;;;5053106;28;19920;-84
2022/03/17 08:40:23;;;;;;;;;;;9.40;99.90;;;;;;5069984;28;20464;-84
2022/03/17 08:42:48;;;;;;;;;;;9.60;99.90;;;;;;5069349;28;20415;-83
2022/03/17 08:50:44;;;;;;;;;;;10.00;99.90;;;;;;5071250;28;19923;-85
2022/03/17 08:53:09;;;;;;;;;;;10.20;99.90;;;;;;5070193;28;19917;-84
2022/03/17 08:55:36;;;;;;;;;;;10.30;99.90;;;;;;5053611;28;19962;-83
2022/03/17 08:58:02;;;;;;;;;;;10.40;99.90;;;;;;5069981;28;19962;-84
2022/03/17 09:00:27;;;;;;;;;;;10.40;99.90;;;;;;5053875;28;19921;-85
2022/03/17 09:02:55;;;;;;;;;;;10.40;99.90;;;;;;5053801;28;19912;-83
2022/03/17 09:05:20;;;;;;;;;;;10.40;99.90;;;;;;5053832;28;20007;-84
2022/03/17 09:07:46;;;;;;;;;;;10.30;99.90;;;;;;5070216;28;19948;-86
2022/03/17 09:10:11;;;;;;;;;;;10.20;99.90;;;;;;5053440;28;20218;-84
2022/03/17 09:12:38;;;;;;;;;;;10.20;99.90;;;;;;5070627;28;20380;-84
2022/03/17 09:15:05;;;;;;;;;;;10.10;99.90;;;;;;5053830;28;19913;-84
2022/03/17 09:17:31;;;;;;;;;;;10.10;99.90;;;;;;5070343;28;19980;-85
2022/03/17 09:19:56;;;;;;;;;;;10.00;99.90;;;;;;5054193;28;19917;-84
2022/03/17 09:22:22;;;;;;;;;;;9.90;99.90;;;;;;5053986;28;20081;-84
2022/03/17 09:24:48;;;;;;;;;;;9.90;99.90;;;;;;5053177;28;20506;-83
2022/03/17 09:27:14;;;;;;;;;;;9.80;99.90;;;;;;5054566;28;19913;-83
2022/03/17 09:29:40;;;;;;;;;;;9.80;99.90;;;;;;5072922;28;20395;-84
2022/03/17 09:32:07;;;;;;;;;;;9.70;99.90;;;;;;5071650;28;20391;-83
2022/03/17 09:34:33;;;;;;;;;;;9.60;99.90;;;;;;5054701;28;19916;-83
2022/03/17 09:36:58;;;;;;;;;;;9.50;99.90;;;;;;5055442;28;20261;-83
2022/03/17 09:39:45;;;;;;;;;;;9.50;99.90;;;;;;5073008;28;19921;-81
2022/03/17 09:42:11;;;;;;;;;;;9.50;99.90;;;;;;5072827;28;20097;-84
2022/03/17 09:44:36;;;;;;;;;;;9.40;99.90;;;;;;5071698;28;19924;-84
2022/03/17 09:47:03;;;;;;;;;;;9.40;99.90;;;;;;5055696;28;20062;-82
2022/03/17 09:49:29;;;;;;;;;;;9.40;99.90;;;;;;5073066;28;19999;-82
2022/03/17 09:51:55;;;;;;;;;;;9.30;99.90;;;;;;5065214;28;20015;-81
2022/03/17 09:54:21;;;;;;;;;;;9.20;99.90;;;;;;5074638;28;19924;-83
2022/03/17 09:56:46;;;;;;;;;;;9.20;99.90;;;;;;5072493;28;19917;-82
2022/03/17 09:59:12;;;;;;;;;;;9.20;99.90;;;;;;5073156;28;19924;-83
2022/03/17 10:01:38;;;;;;;;;;;9.10;99.90;;;;;;5074249;28;20243;-82
2022/03/17 10:04:03;;;;;;;;;;;9.10;99.90;;;;;;5074569;28;19912;-82
2022/03/17 10:06:29;;;;;;;;;;;9.10;99.90;;;;;;5072361;28;20689;-82
2022/03/17 10:08:55;;;;;;;;;;;9.10;99.90;;;;;;5072667;28;19916;-81
2022/03/17 10:11:30;;;;;;;;;;;9.10;99.90;;;;;;5072863;28;19920;-82
2022/03/17 10:13:57;;;;;;;;;;;9.00;99.90;;;;;;5074129;28;20281;-82
2022/03/17 10:16:24;;;;;;;;;;;9.00;99.90;;;;;;5074949;28;19954;-81
2022/03/17 10:18:56;;;;;;;;;;;9.00;99.90;;;;;;5072455;28;19912;-82
2022/03/17 10:21:24;;;;;;;;;;;9.00;99.90;;;;;;5074285;28;19920;-83
2022/03/17 10:24:04;;;;;;;;;;;9.00;99.90;;;;;;5056484;28;19956;-81
2022/03/17 10:26:29;;;;;;;;;;;9.00;99.90;;;;;;5050930;28;19951;-80
2022/03/17 10:29:02;;;;;;;;;;;8.90;99.90;;;;;;5074117;28;19919;-82
2022/03/17 10:31:27;;;;;;;;;;;8.90;99.90;;;;;;5073267;28;19946;-82
2022/03/17 10:33:53;;;;;;;;;;;8.90;99.90;;;;;;5057242;28;20376;-82
2022/03/17 10:36:21;;;;;;;;;;;8.90;99.90;;;;;;5073676;28;19951;-82
2022/03/17 10:38:47;;;;;;;;;;;8.80;99.90;;;;;;5068822;28;19962;-82
2022/03/17 10:41:13;;;;;;;;;;;8.80;99.90;;;;;;5071971;28;19916;-82
2022/03/17 10:43:42;;;;;;;;;;;8.70;99.90;;;;;;5095404;22;19948;-85
2022/03/17 10:46:16;;;;;;;;;;;8.60;99.90;;;;;;5036495;28;20455;-84
2022/03/17 10:49:01;;;;;;;;;;;8.60;99.90;;;;;;5017322;28;19921;-84
2022/03/17 10:51:42;;;;;;;;;;;8.70;99.90;;;;;;5013175;28;19948;-84
2022/03/17 10:54:15;;;;;;;;;;;8.70;99.90;;;;;;5007141;28;19921;-85
2022/03/17 10:56:41;;;;;;;;;;;8.70;99.90;;;;;;4997547;28;19957;-86
2022/03/17 10:59:09;;;;;;;;;;;8.70;99.90;;;;;;5003777;28;19922;-85
2022/03/17 11:01:42;;;;;;;;;;;8.70;99.90;;;;;;4987900;28;20008;-84
2022/03/17 11:04:08;;;;;;;;;;;8.70;99.90;;;;;;5002846;28;19918;-85
2022/03/17 11:06:34;;;;;;;;;;;8.70;99.90;;;;;;4998850;28;19932;-83
2022/03/17 11:09:01;;;;;;;;;;;8.70;99.90;;;;;;5006756;28;20388;-84
2022/03/17 11:11:27;;;;;;;;;;;8.70;99.90;;;;;;4994838;28;19964;-85
2022/03/17 11:13:52;;;;;;;;;;;8.70;99.90;;;;;;5001016;28;19955;-87
2022/03/17 11:16:19;;;;;;;;;;;8.70;99.90;;;;;;4999258;28;19918;-86
2022/03/17 11:18:46;;;;;;;;;;;8.70;99.90;;;;;;4999401;28;19922;-86
2022/03/17 11:21:12;;;;;;;;;;;8.80;99.90;;;;;;4999722;28;19913;-86
2022/03/17 11:24:04;;;;;;;;;;;8.80;99.90;;;;;;4982880;28;19922;-84
2022/03/17 11:26:34;;;;;;;;;;;8.80;99.90;;;;;;5009420;28;19999;-86
2022/03/17 11:29:04;;;;;;;;;;;8.80;99.90;;;;;;5027462;28;19918;-85
2022/03/17 11:31:48;;;;;;;;;;;8.80;99.90;;;;;;5000416;28;20342;-85
2022/03/17 11:34:13;;;;;;;;;;;8.90;99.90;;;;;;5006751;28;19918;-86
2022/03/17 11:36:58;;;;;;;;;;;9.00;99.90;;;;;;5002582;28;19918;-84
2022/03/17 11:39:24;;;;;;;;;;;9.00;99.90;;;;;;5002229;28;19917;-85
2022/03/17 11:41:52;;;;;;;;;;;9.00;99.90;;;;;;5002905;28;20400;-85
2022/03/17 11:44:30;;;;;;;;;;;9.00;99.90;;;;;;5002720;28;19922;-85
2022/03/17 11:46:56;;;;;;;;;;;9.00;99.90;;;;;;4993233;28;19922;-84
2022/03/17 11:49:27;;;;;;;;;;;9.00;99.90;;;;;;5007259;28;19956;-84
2022/03/17 11:51:54;;;;;;;;;;;9.00;99.90;;;;;;4996842;28;19918;-85
2022/03/17 11:54:19;;;;;;;;;;;9.00;99.90;;;;;;4994038;28;19914;-85
2022/03/17 11:56:47;;;;;;;;;;;8.90;99.90;;;;;;4991479;28;19925;-85
2022/03/17 11:59:16;;;;;;;;;;;8.90;99.90;;;;;;4988564;28;20297;-85
2022/03/17 12:01:46;;;;;;;;;;;8.80;99.90;;;;;;5007036;28;19914;-85
2022/03/17 12:04:30;;;;;;;;;;;8.80;99.90;;;;;;4997312;28;19921;-84
2022/03/17 12:07:09;;;;;;;;;;;8.80;99.90;;;;;;4993953;28;19951;-86
2022/03/17 12:09:35;;;;;;;;;;;8.70;99.90;;;;;;4984662;28;19914;-84
2022/03/17 12:12:01;;;;;;;;;;;8.70;99.90;;;;;;4996517;28;19918;-84
2022/03/17 12:14:28;;;;;;;;;;;8.70;99.90;;;;;;4984634;28;19959;-85
2022/03/17 12:17:08;;;;;;;;;;;8.60;99.90;;;;;;4999496;28;19921;-85
2022/03/17 12:19:35;;;;;;;;;;;8.60;99.90;;;;;;5006263;28;20390;-85
2022/03/17 12:22:00;;;;;;;;;;;8.70;99.90;;;;;;4977587;28;19918;-85
2022/03/17 12:24:35;;;;;;;;;;;8.70;99.90;;;;;;5005440;28;19936;-86
2022/03/17 12:27:07;;;;;;;;;;;8.70;99.90;;;;;;5000777;28;19928;-85
2022/03/17 12:29:32;;;;;;;;;;;8.70;99.90;;;;;;5002643;28;19914;-85
2022/03/17 12:32:07;;;;;;;;;;;8.60;99.90;;;;;;5005068;28;19941;-84
2022/03/17 12:34:34;;;;;;;;;;;8.60;99.90;;;;;;4997336;28;19996;-86
2022/03/17 12:37:01;;;;;;;;;;;8.60;99.90;;;;;;4992830;28;20281;-84
2022/03/17 12:39:30;;;;;;;;;;;8.60;99.90;;;;;;5004329;28;19913;-85
2022/03/17 12:41:59;;;;;;;;;;;8.60;99.90;;;;;;5001029;28;19917;-85
2022/03/17 12:44:25;;;;;;;;;;;8.60;99.90;;;;;;4982964;28;20310;-86
2022/03/17 12:46:52;;;;;;;;;;;8.60;99.90;;;;;;5006629;28;19948;-85
2022/03/17 12:49:18;;;;;;;;;;;8.60;99.90;;;;;;4998612;28;19921;-85
2022/03/17 12:51:43;;;;;;;;;;;8.60;99.90;;;;;;5003462;28;19918;-86
2022/03/17 12:54:11;;;;;;;;;;;8.60;99.90;;;;;;5000752;28;19922;-85
2022/03/17 12:56:50;;;;;;;;;;;8.50;99.90;;;;;;5000377;28;19921;-85
2022/03/17 12:59:15;;;;;;;;;;;8.50;99.90;;;;;;4999386;28;19918;-85
2022/03/17 13:01:41;;;;;;;;;;;8.50;99.90;;;;;;5002829;28;19985;-85
2022/03/17 13:04:07;;;;;;;;;;;8.60;99.90;;;;;;5002417;28;19925;-86
2022/03/17 13:09:18;;;;;;;;;;;8.80;99.90;;;;;;4995443;28;19933;-85
2022/03/17 13:14:31;;;;;;;;;;;8.90;99.90;;;;;;5007883;28;19924;-86
2022/03/17 13:17:00;;;;;;;;;;;8.90;99.90;;;;;;4986369;28;19917;-85
2022/03/17 13:19:25;;;;;;;;;;;8.90;99.90;;;;;;4993783;28;19937;-85
2022/03/17 13:22:01;;;;;;;;;;;8.80;99.90;;;;;;5006331;28;19969;-85
2022/03/17 13:24:27;;;;;;;;;;;8.70;99.90;;;;;;4994530;28;19918;-84
2022/03/17 13:26:59;;;;;;;;;;;8.70;99.90;;;;;;4986213;28;20401;-86
2022/03/17 13:29:25;;;;;;;;;;;8.60;99.90;;;;;;4989345;28;19953;-85
2022/03/17 13:31:50;;;;;;;;;;;8.60;99.90;;;;;;4997987;28;19924;-84
2022/03/17 13:34:45;;;;;;;;;;;8.50;99.90;;;;;;4998686;28;19918;-85
2022/03/17 13:37:14;;;;;;;;;;;8.50;99.90;;;;;;4996719;28;19913;-84
2022/03/17 13:39:39;;;;;;;;;;;8.50;99.90;;;;;;4984671;28;19928;-84
2022/03/17 13:42:12;;;;;;;;;;;8.50;99.90;;;;;;4974218;28;20366;-84
2022/03/17 13:44:45;;;;;;;;;;;8.50;99.90;;;;;;4997312;28;19917;-84
2022/03/17 13:47:11;;;;;;;;;;;8.50;99.90;;;;;;5004460;28;19920;-85
2022/03/17 13:49:37;;;;;;;;;;;8.60;99.90;;;;;;4997099;28;19917;-84
2022/03/17 13:52:02;;;;;;;;;;;8.60;99.90;;;;;;4989381;28;19921;-85
2022/03/17 13:54:28;;;;;;;;;;;8.60;99.90;;;;;;4993730;28;19918;-84
2022/03/17 13:57:00;;;;;;;;;;;8.60;99.90;;;;;;4993600;28;19921;-84
2022/03/17 13:59:26;;;;;;;;;;;8.60;99.90;;;;;;5015367;28;19917;-85
2022/03/17 14:02:10;;;;;;;;;;;8.60;99.90;;;;;;4984850;28;19918;-84
2022/03/17 14:04:36;;;;;;;;;;;8.60;99.90;;;;;;5016531;28;19922;-85
2022/03/17 14:07:01;;;;;;;;;;;8.60;99.90;;;;;;4976738;28;20290;-84
2022/03/17 14:09:27;;;;;;;;;;;8.70;99.90;;;;;;4983162;28;20268;-85
2022/03/17 14:11:52;;;;;;;;;;;8.70;99.90;;;;;;4983615;28;19917;-85
2022/03/17 14:14:20;;;;;;;;;;;8.70;99.90;;;;;;4989852;28;20345;-85
2022/03/17 14:16:47;;;;;;;;;;;8.60;99.90;;;;;;4989262;28;19917;-85
2022/03/17 14:19:14;;;;;;;;;;;8.60;99.90;;;;;;4980650;28;19921;-84
2022/03/17 14:24:10;;;;;;;;;;;8.60;99.90;;;;;;4982886;28;19917;-84
2022/03/17 14:24:28;;;;;;;;;;;8.60;99.90;;;;;;5008263;28;19922;-85
2022/03/17 14:26:54;;;;;;;;;;;8.60;99.90;;;;;;5007502;28;19933;-84
2022/03/17 14:29:20;;;;;;;;;;;8.60;99.90;;;;;;4999897;28;20293;-85
2022/03/17 14:31:46;;;;;;;;;;;8.60;99.90;;;;;;5004333;28;19935;-85
2022/03/17 14:34:13;;;;;;;;;;;8.70;99.90;;;;;;5010374;28;19917;-85
2022/03/17 14:36:43;;;;;;;;;;;8.60;99.90;;;;;;4996204;28;19918;-85
2022/03/17 14:39:09;;;;;;;;;;;8.60;99.90;;;;;;4998575;28;19914;-84
2022/03/17 14:41:36;;;;;;;;;;;8.60;99.90;;;;;;4975956;28;19932;-84
2022/03/17 14:44:02;;;;;;;;;;;8.70;99.90;;;;;;4998168;28;19918;-84
2022/03/17 14:46:28;;;;;;;;;;;8.60;99.90;;;;;;5007930;28;19926;-85
2022/03/17 14:48:55;;;;;;;;;;;8.60;99.90;;;;;;4994267;28;19921;-84
2022/03/17 14:51:21;;;;;;;;;;;8.60;99.90;;;;;;4999774;28;19957;-85